Time;durP1;ratioP1;P1;durP2;ratioP2;P2;SDS_P1;SDS_P2;PMS_P1;PMS_P2;Temp;Humidity;BMP_temperature;BMP_pressure;BME280_temperature;BME280_humidity;BME280_pressure;Samples;Min_cycle;Max_cycle;Signal;HPM_P1;HPM_P2
2021/05/24 00:01:14;;;;;;;1.35;0.80;;;14.20;73.40;;;;;;4970504;28;20019;-77
2021/05/24 00:03:40;;;;;;;0.70;0.70;;;14.10;73.40;;;;;;4953648;28;20035;-79
2021/05/24 00:06:06;;;;;;;0.80;0.65;;;14.10;73.60;;;;;;4955862;29;20038;-79
2021/05/24 00:08:31;;;;;;;2.53;0.85;;;14.20;73.60;;;;;;4969996;28;20094;-78
2021/05/24 00:10:57;;;;;;;1.35;0.90;;;14.10;73.70;;;;;;4954439;29;20122;-78
2021/05/24 00:13:24;;;;;;;1.45;0.88;;;14.10;73.60;;;;;;4938469;29;20035;-83
2021/05/24 00:15:53;;;;;;;3.10;0.80;;;14.20;73.60;;;;;;4956803;29;20094;-79
2021/05/24 00:18:19;;;;;;;3.88;0.90;;;14.10;72.80;;;;;;4956672;29;20095;-79
2021/05/24 00:20:51;;;;;;;4.68;0.60;;;14.10;72.50;;;;;;4937711;29;20035;-78
2021/05/24 00:23:17;;;;;;;3.25;0.73;;;14.10;72.40;;;;;;4955624;29;20042;-78
2021/05/24 00:25:43;;;;;;;1.38;0.85;;;14.10;72.50;;;;;;4954707;29;20027;-79
2021/05/24 00:28:13;;;;;;;2.78;0.88;;;14.10;72.50;;;;;;4955355;29;20460;-79
2021/05/24 00:30:41;;;;;;;2.05;0.77;;;14.20;72.60;;;;;;4955092;29;20110;-79
2021/05/24 00:33:07;;;;;;;2.28;0.93;;;14.10;72.50;;;;;;4970163;28;20333;-78
2021/05/24 00:35:33;;;;;;;2.70;0.60;;;14.20;72.50;;;;;;4970435;28;20081;-78
2021/05/24 00:37:59;;;;;;;1.88;0.88;;;14.10;72.30;;;;;;4954763;29;20034;-78
2021/05/24 00:40:26;;;;;;;1.88;0.85;;;14.10;72.00;;;;;;4969482;28;20020;-85
2021/05/24 00:42:51;;;;;;;3.78;0.90;;;14.10;72.80;;;;;;4954016;29;20468;-79
2021/05/24 00:45:17;;;;;;;1.80;0.85;;;14.10;71.90;;;;;;4955180;29;20038;-79
2021/05/24 00:47:43;;;;;;;1.77;0.80;;;14.10;71.80;;;;;;4954949;29;20522;-79
2021/05/24 00:50:11;;;;;;;1.10;0.70;;;14.20;71.60;;;;;;4970570;28;20114;-77
2021/05/24 00:52:37;;;;;;;2.25;1.00;;;14.10;71.30;;;;;;4955515;29;20034;-78
2021/05/24 00:55:05;;;;;;;1.52;0.70;;;14.10;71.30;;;;;;4969931;28;20062;-79
2021/05/24 00:57:31;;;;;;;1.17;0.80;;;14.10;71.40;;;;;;4955205;29;20460;-79
2021/05/24 00:59:57;;;;;;;4.05;0.88;;;14.10;71.60;;;;;;4955256;28;20039;-79
2021/05/24 01:02:23;;;;;;;0.73;0.57;;;14.20;71.60;;;;;;4955218;29;20038;-78
2021/05/24 01:04:49;;;;;;;0.95;0.70;;;14.20;71.40;;;;;;4954374;29;20118;-78
2021/05/24 01:07:15;;;;;;;1.00;0.80;;;14.10;71.10;;;;;;4954735;29;20160;-78
2021/05/24 01:09:40;;;;;;;1.80;0.95;;;14.10;71.30;;;;;;4954534;29;20020;-78
2021/05/24 01:12:08;;;;;;;2.60;0.65;;;14.10;71.40;;;;;;4937663;29;20027;-78
2021/05/24 01:14:34;;;;;;;1.27;0.80;;;14.10;72.20;;;;;;4952256;28;20019;-78
2021/05/24 01:16:59;;;;;;;1.15;0.50;;;14.20;71.70;;;;;;4954037;29;20027;-78
2021/05/24 01:19:25;;;;;;;1.08;0.63;;;14.10;71.60;;;;;;4937353;29;20015;-79
2021/05/24 01:21:52;;;;;;;1.05;0.77;;;14.20;71.70;;;;;;4953983;29;20035;-78
2021/05/24 01:24:19;;;;;;;1.60;0.80;;;14.20;71.70;;;;;;4937290;29;20114;-78
2021/05/24 01:26:45;;;;;;;1.75;0.60;;;14.20;71.80;;;;;;4936635;29;20023;-78
2021/05/24 01:29:12;;;;;;;0.90;0.75;;;14.20;71.90;;;;;;4954585;29;20162;-78
2021/05/24 01:31:38;;;;;;;3.22;0.80;;;14.20;71.70;;;;;;4954239;29;20054;-77
2021/05/24 01:34:04;;;;;;;1.67;0.82;;;14.10;71.60;;;;;;4954918;29;20034;-78
2021/05/24 01:36:30;;;;;;;0.50;0.50;;;14.10;71.50;;;;;;4954613;29;20031;-84
2021/05/24 01:38:55;;;;;;;1.45;0.70;;;14.10;71.60;;;;;;4937302;29;20031;-78
2021/05/24 01:41:22;;;;;;;3.35;1.27;;;14.20;71.70;;;;;;4954580;29;20405;-77
2021/05/24 01:43:48;;;;;;;2.15;0.70;;;14.20;71.90;;;;;;4954009;29;20110;-78
2021/05/24 01:46:14;;;;;;;0.85;0.68;;;14.10;72.00;;;;;;4937544;29;20534;-79
2021/05/24 01:48:40;;;;;;;0.93;0.80;;;14.10;72.20;;;;;;4954738;29;20031;-78
2021/05/24 01:51:07;;;;;;;1.25;0.63;;;14.10;72.00;;;;;;4955319;29;20034;-78
2021/05/24 01:53:34;;;;;;;1.00;0.68;;;14.10;72.10;;;;;;4936992;29;20034;-78
2021/05/24 01:55:59;;;;;;;1.00;0.80;;;14.10;72.10;;;;;;4938112;29;20034;-79
2021/05/24 01:58:27;;;;;;;0.65;0.57;;;14.10;72.10;;;;;;4942710;29;20047;-78
2021/05/24 02:00:59;;;;;;;0.80;0.52;;;14.10;72.00;;;;;;4968374;28;20034;-77
2021/05/24 02:03:24;;;;;;;1.05;0.60;;;14.10;72.10;;;;;;4953941;29;20360;-78
2021/05/24 02:05:50;;;;;;;1.77;0.80;;;14.10;72.30;;;;;;4953407;29;20023;-79
2021/05/24 02:08:16;;;;;;;1.20;0.70;;;14.10;72.50;;;;;;4954271;29;20025;-78
2021/05/24 02:10:42;;;;;;;0.63;0.60;;;14.10;72.50;;;;;;4953555;29;20031;-78
2021/05/24 02:13:08;;;;;;;0.85;0.60;;;14.10;72.60;;;;;;4954052;29;20022;-77
2021/05/24 02:15:37;;;;;;;2.83;0.82;;;14.10;72.80;;;;;;4953231;29;20105;-79
2021/05/24 02:18:04;;;;;;;1.50;0.85;;;14.10;72.80;;;;;;4968467;28;20023;-79
2021/05/24 02:20:29;;;;;;;0.82;0.65;;;14.00;72.70;;;;;;4953917;29;20041;-78
2021/05/24 02:22:57;;;;;;;2.63;0.73;;;14.00;72.70;;;;;;4952096;29;20369;-78
2021/05/24 02:25:23;;;;;;;1.80;1.05;;;14.00;72.90;;;;;;4968577;28;20115;-79
2021/05/24 02:27:50;;;;;;;2.75;0.65;;;14.00;73.20;;;;;;4970936;28;20053;-78
2021/05/24 02:30:18;;;;;;;1.00;0.50;;;14.00;73.30;;;;;;4972359;28;20019;-79
2021/05/24 02:32:46;;;;;;;1.13;0.85;;;14.00;73.50;;;;;;4956945;29;20034;-78
2021/05/24 02:35:13;;;;;;;1.90;0.55;;;14.00;73.80;;;;;;4956147;29;20050;-78
2021/05/24 02:37:44;;;;;;;1.30;0.50;;;14.00;73.90;;;;;;4971532;28;20031;-79
2021/05/24 02:40:12;;;;;;;2.15;0.95;;;14.00;73.70;;;;;;4972275;28;20405;-79
2021/05/24 02:42:37;;;;;;;2.75;0.57;;;14.00;73.80;;;;;;4971357;28;20039;-79
2021/05/24 02:45:09;;;;;;;1.33;0.70;;;13.90;74.00;;;;;;4939770;29;20030;-79
2021/05/24 02:47:35;;;;;;;2.03;0.70;;;13.90;74.20;;;;;;4955866;29;20023;-79
2021/05/24 02:50:03;;;;;;;0.80;0.57;;;13.90;74.30;;;;;;4957293;29;20110;-79
2021/05/24 02:52:28;;;;;;;0.70;0.60;;;13.90;74.00;;;;;;4971998;28;20036;-78
2021/05/24 02:54:54;;;;;;;3.95;1.20;;;13.90;74.10;;;;;;4956614;29;20031;-79
2021/05/24 02:57:20;;;;;;;0.90;0.60;;;13.80;74.20;;;;;;4955987;29;20488;-78
2021/05/24 02:59:45;;;;;;;1.33;0.68;;;13.80;74.20;;;;;;4960148;28;20051;-78
2021/05/24 03:02:16;;;;;;;0.77;0.45;;;13.80;74.30;;;;;;4956877;29;20114;-79
2021/05/24 03:04:41;;;;;;;0.90;0.77;;;13.80;74.10;;;;;;4938926;29;20128;-79
2021/05/24 03:07:07;;;;;;;1.52;0.70;;;13.70;74.20;;;;;;4957442;29;20459;-79
2021/05/24 03:09:33;;;;;;;2.15;0.52;;;13.80;74.40;;;;;;4939973;29;20030;-77
2021/05/24 03:11:59;;;;;;;1.15;0.57;;;13.80;74.50;;;;;;4939637;29;20557;-78
2021/05/24 03:14:44;;;;;;;1.38;0.60;;;13.80;74.70;;;;;;4955905;29;20058;-78
2021/05/24 03:17:10;;;;;;;1.63;0.60;;;13.80;74.80;;;;;;4939525;29;20024;-78
2021/05/24 03:19:35;;;;;;;2.58;0.85;;;13.80;75.00;;;;;;4956686;29;20479;-78
2021/05/24 03:22:01;;;;;;;3.05;0.88;;;13.80;75.10;;;;;;4938751;29;20531;-78
2021/05/24 03:24:27;;;;;;;0.85;0.60;;;13.80;74.90;;;;;;4939341;29;20162;-78
2021/05/24 03:26:52;;;;;;;2.65;0.65;;;13.80;75.00;;;;;;4938803;29;20027;-79
2021/05/24 03:29:18;;;;;;;1.17;0.90;;;13.80;75.00;;;;;;4956221;29;20027;-79
2021/05/24 03:31:44;;;;;;;1.13;0.60;;;13.80;75.00;;;;;;4955698;29;20360;-79
2021/05/24 03:34:09;;;;;;;0.77;0.60;;;13.80;75.20;;;;;;4956475;29;20383;-77
2021/05/24 03:36:35;;;;;;;0.55;0.43;;;13.80;75.20;;;;;;4939148;29;20030;-78
2021/05/24 03:39:01;;;;;;;0.68;0.50;;;13.80;75.40;;;;;;4937896;29;20082;-79
2021/05/24 03:41:26;;;;;;;1.50;0.63;;;13.80;75.40;;;;;;4938878;29;20031;-78
2021/05/24 03:43:52;;;;;;;0.95;0.60;;;13.80;75.20;;;;;;4954583;29;20062;-79
2021/05/24 03:46:18;;;;;;;1.15;0.77;;;13.70;75.40;;;;;;4939865;29;20030;-79
2021/05/24 03:48:43;;;;;;;2.47;0.80;;;13.80;75.60;;;;;;4959565;29;20474;-78
2021/05/24 03:51:09;;;;;;;4.85;0.70;;;13.80;75.70;;;;;;4940523;29;20559;-78
2021/05/24 03:53:35;;;;;;;3.90;0.70;;;13.80;76.00;;;;;;4959342;29;20027;-78
2021/05/24 03:56:02;;;;;;;1.20;0.70;;;13.80;76.20;;;;;;4942991;29;20098;-78
2021/05/24 03:58:28;;;;;;;1.98;0.70;;;13.80;76.30;;;;;;4942462;28;20095;-78
2021/05/24 04:00:54;;;;;;;2.58;0.70;;;13.80;76.50;;;;;;4957533;29;20062;-78
2021/05/24 04:03:20;;;;;;;1.40;0.68;;;13.70;76.50;;;;;;4943496;29;20031;-78
2021/05/24 04:05:48;;;;;;;5.38;1.33;;;13.70;76.40;;;;;;4942212;29;20027;-78
2021/05/24 04:08:14;;;;;;;1.00;0.60;;;13.70;76.50;;;;;;4958008;29;20024;-78
2021/05/24 04:10:49;;;;;;;0.73;0.55;;;13.70;76.50;;;;;;4957618;29;20027;-79
2021/05/24 04:13:15;;;;;;;1.48;0.75;;;13.70;76.60;;;;;;4957311;29;20078;-79
2021/05/24 04:15:45;;;;;;;0.85;0.70;;;13.70;76.40;;;;;;4956604;29;20199;-85
2021/05/24 04:18:15;;;;;;;0.90;0.68;;;13.70;76.50;;;;;;4956433;29;20020;-78
2021/05/24 04:20:41;;;;;;;0.73;0.60;;;13.60;76.60;;;;;;4956877;29;20023;-79
2021/05/24 04:23:07;;;;;;;1.48;0.85;;;13.60;76.70;;;;;;4956808;29;20038;-78
2021/05/24 04:25:32;;;;;;;0.93;0.60;;;13.60;76.60;;;;;;4956635;29;20103;-78
2021/05/24 04:27:58;;;;;;;0.40;0.40;;;13.60;76.60;;;;;;4955945;29;20101;-78
2021/05/24 04:30:24;;;;;;;0.60;0.60;;;13.60;76.70;;;;;;4939108;29;20047;-78
2021/05/24 04:32:49;;;;;;;1.33;0.60;;;13.60;76.70;;;;;;4956037;29;20061;-77
2021/05/24 04:35:16;;;;;;;1.98;0.70;;;13.60;76.60;;;;;;4954680;29;20119;-78
2021/05/24 04:37:42;;;;;;;0.75;0.75;;;13.60;76.80;;;;;;4955214;29;20059;-79
2021/05/24 04:40:08;;;;;;;2.53;0.68;;;13.60;76.90;;;;;;4954480;29;20121;-79
2021/05/24 04:42:34;;;;;;;2.10;0.60;;;13.60;76.80;;;;;;4954758;29;20023;-79
2021/05/24 04:44:59;;;;;;;3.88;0.70;;;13.60;76.80;;;;;;4954618;29;20042;-79
2021/05/24 04:47:25;;;;;;;0.73;0.70;;;13.60;76.90;;;;;;4937970;29;20023;-78
2021/05/24 04:49:50;;;;;;;1.55;0.50;;;13.60;76.90;;;;;;4953400;28;20033;-79
2021/05/24 04:52:17;;;;;;;1.27;0.70;;;13.60;77.00;;;;;;4954926;29;20066;-78
2021/05/24 04:54:44;;;;;;;0.82;0.60;;;13.60;77.60;;;;;;4955304;29;20119;-78
2021/05/24 04:57:10;;;;;;;2.28;0.60;;;13.60;77.10;;;;;;4939199;29;20031;-79
2021/05/24 04:59:36;;;;;;;0.52;0.50;;;13.60;76.90;;;;;;4956321;28;20051;-79
2021/05/24 05:02:02;;;;;;;1.13;0.70;;;13.70;76.90;;;;;;4940293;29;20352;-78
2021/05/24 05:04:28;;;;;;;0.57;0.50;;;13.70;76.90;;;;;;4955093;29;20027;-78
2021/05/24 05:06:55;;;;;;;0.98;0.57;;;13.70;76.80;;;;;;4954304;29;20081;-78
2021/05/24 05:09:21;;;;;;;1.20;0.60;;;13.80;76.70;;;;;;4954817;29;20023;-78
2021/05/24 05:11:47;;;;;;;2.53;1.38;;;13.70;76.70;;;;;;4936579;29;20035;-78
2021/05/24 05:14:12;;;;;;;3.88;1.98;;;13.70;76.80;;;;;;4955170;29;20034;-78
2021/05/24 05:16:38;;;;;;;2.78;1.40;;;13.80;76.80;;;;;;4936648;29;20031;-79
2021/05/24 05:19:04;;;;;;;2.95;0.90;;;13.80;76.60;;;;;;4953736;29;20019;-78
2021/05/24 05:21:29;;;;;;;1.30;0.70;;;13.80;76.80;;;;;;4954701;29;20031;-77
2021/05/24 05:23:55;;;;;;;2.25;0.90;;;13.80;76.90;;;;;;4953894;29;20098;-78
2021/05/24 05:26:21;;;;;;;1.10;0.70;;;13.90;76.90;;;;;;4954293;29;20027;-78
2021/05/24 05:28:47;;;;;;;1.15;0.65;;;13.90;76.80;;;;;;4954425;29;20051;-78
2021/05/24 05:31:12;;;;;;;0.73;0.70;;;13.90;76.90;;;;;;4954109;29;20031;-78
2021/05/24 05:33:38;;;;;;;1.85;0.60;;;13.90;77.00;;;;;;4954396;29;20031;-79
2021/05/24 05:36:04;;;;;;;3.08;0.90;;;14.00;77.00;;;;;;4953678;29;20441;-78
2021/05/24 05:38:30;;;;;;;1.17;0.60;;;14.00;76.70;;;;;;4954278;29;20019;-78
2021/05/24 05:40:56;;;;;;;0.70;0.52;;;14.10;76.60;;;;;;4952387;29;20039;-79
2021/05/24 05:43:22;;;;;;;1.17;0.77;;;14.10;76.60;;;;;;4952857;29;20035;-78
2021/05/24 05:45:48;;;;;;;1.23;0.77;;;14.10;76.60;;;;;;4954192;29;20490;-79
2021/05/24 05:48:14;;;;;;;1.90;0.60;;;14.10;76.60;;;;;;4954449;29;20499;-78
2021/05/24 05:50:39;;;;;;;2.35;0.60;;;14.20;76.40;;;;;;4952870;29;20082;-79
2021/05/24 05:53:05;;;;;;;2.53;0.73;;;14.20;76.40;;;;;;4953581;29;20047;-78
2021/05/24 05:55:31;;;;;;;1.73;1.42;;;14.20;76.30;;;;;;4952863;29;20023;-79
2021/05/24 05:57:57;;;;;;;1.52;0.63;;;14.20;76.20;;;;;;4952311;29;20535;-79
2021/05/24 06:00:23;;;;;;;0.77;0.70;;;14.30;76.40;;;;;;4954288;28;20138;-79
2021/05/24 06:02:49;;;;;;;2.35;0.60;;;14.30;76.30;;;;;;4939762;29;20027;-78
2021/05/24 06:05:15;;;;;;;0.93;0.57;;;14.40;76.20;;;;;;4958109;29;20383;-79
2021/05/24 06:07:41;;;;;;;3.00;0.77;;;14.40;76.20;;;;;;4956662;29;20019;-78
2021/05/24 06:10:08;;;;;;;0.45;0.43;;;14.40;75.80;;;;;;4957508;29;20031;-79
2021/05/24 06:12:34;;;;;;;2.25;0.50;;;14.50;75.80;;;;;;4956650;29;20034;-78
2021/05/24 06:15:00;;;;;;;2.50;0.70;;;14.50;75.70;;;;;;4955782;29;20394;-79
2021/05/24 06:17:26;;;;;;;1.10;0.60;;;14.50;75.50;;;;;;4952889;28;20031;-79
2021/05/24 06:19:51;;;;;;;0.68;0.47;;;14.60;75.60;;;;;;4946444;29;20031;-80
2021/05/24 06:22:18;;;;;;;0.47;0.47;;;14.60;75.40;;;;;;4943891;29;20042;-79
2021/05/24 06:24:44;;;;;;;1.30;0.88;;;14.70;75.30;;;;;;4931113;29;20027;-79
2021/05/24 06:27:10;;;;;;;1.02;0.50;;;14.70;75.30;;;;;;4945004;29;20027;-79
2021/05/24 06:29:36;;;;;;;2.95;0.70;;;14.70;76.00;;;;;;4927920;29;20031;-78
2021/05/24 06:32:02;;;;;;;2.30;0.60;;;14.80;75.30;;;;;;4932464;29;20032;-79
2021/05/24 06:34:27;;;;;;;1.35;0.47;;;14.80;75.10;;;;;;4943487;29;20039;-79
2021/05/24 06:36:53;;;;;;;1.65;0.80;;;14.80;75.00;;;;;;4930767;29;20446;-79
2021/05/24 06:39:20;;;;;;;0.57;0.50;;;14.90;74.90;;;;;;4932165;29;20034;-78
2021/05/24 06:41:47;;;;;;;0.50;0.47;;;14.90;75.00;;;;;;4934521;29;20028;-78
2021/05/24 06:44:12;;;;;;;2.28;0.63;;;14.90;74.90;;;;;;4948365;29;20178;-79
2021/05/24 06:46:38;;;;;;;1.17;0.50;;;15.00;74.90;;;;;;4923007;29;20055;-82
2021/05/24 06:49:04;;;;;;;1.30;0.63;;;14.90;74.40;;;;;;4952477;29;20015;-79
2021/05/24 06:51:30;;;;;;;2.00;0.70;;;14.90;74.40;;;;;;4938510;29;20031;-79
2021/05/24 06:53:55;;;;;;;1.48;0.70;;;14.90;74.40;;;;;;4929911;29;20074;-79
2021/05/24 06:56:22;;;;;;;0.95;0.80;;;14.90;74.40;;;;;;4956965;29;20460;-78
2021/05/24 06:58:47;;;;;;;2.13;0.70;;;14.90;74.10;;;;;;4940525;29;20059;-79
2021/05/24 07:01:14;;;;;;;2.47;0.90;;;14.80;74.10;;;;;;4956346;29;20210;-78
2021/05/24 07:03:42;;;;;;;2.30;0.68;;;14.80;73.80;;;;;;4956806;29;20471;-78
2021/05/24 07:06:08;;;;;;;3.28;0.68;;;14.80;73.90;;;;;;4964201;28;20106;-80
2021/05/24 07:08:35;;;;;;;2.03;1.08;;;14.80;73.80;;;;;;4955614;29;20102;-78
2021/05/24 07:11:00;;;;;;;4.10;0.95;;;14.80;73.70;;;;;;4946343;29;20028;-77
2021/05/24 07:13:26;;;;;;;1.67;0.80;;;14.70;73.60;;;;;;4961596;28;20023;-79
2021/05/24 07:15:52;;;;;;;1.73;0.60;;;14.60;74.20;;;;;;4946302;29;20031;-78
2021/05/24 07:18:19;;;;;;;0.40;0.40;;;14.50;74.90;;;;;;4937010;29;20102;-79
2021/05/24 07:20:45;;;;;;;0.77;0.40;;;14.30;75.80;;;;;;4937376;29;20024;-78
2021/05/24 07:23:11;;;;;;;0.90;0.60;;;14.20;76.50;;;;;;4936109;29;20122;-78
2021/05/24 07:25:37;;;;;;;1.02;0.52;;;14.10;77.00;;;;;;4938380;29;20051;-79
2021/05/24 07:28:02;;;;;;;1.38;0.70;;;14.00;77.20;;;;;;4943823;29;20436;-79
2021/05/24 07:30:28;;;;;;;0.75;0.60;;;13.90;77.50;;;;;;4936245;29;20027;-79
2021/05/24 07:32:54;;;;;;;0.65;0.63;;;13.90;77.80;;;;;;4951093;29;20031;-78
2021/05/24 07:35:19;;;;;;;0.63;0.60;;;13.80;77.80;;;;;;4954724;29;20079;-79
2021/05/24 07:37:45;;;;;;;0.73;0.60;;;13.80;78.00;;;;;;4956374;29;20042;-79
2021/05/24 07:40:12;;;;;;;0.95;0.68;;;13.80;78.10;;;;;;4956265;29;20024;-77
2021/05/24 07:42:38;;;;;;;2.80;0.90;;;13.70;78.40;;;;;;4956262;29;20042;-77
2021/05/24 07:45:05;;;;;;;0.40;0.40;;;13.70;78.80;;;;;;4955578;29;20090;-76
2021/05/24 07:47:33;;;;;;;2.08;0.70;;;13.70;78.90;;;;;;4956926;29;20034;-80
2021/05/24 07:49:59;;;;;;;0.80;0.77;;;13.70;79.20;;;;;;4955699;29;20027;-78
2021/05/24 07:52:24;;;;;;;1.13;0.80;;;13.70;79.50;;;;;;4955851;29;20121;-77
2021/05/24 07:54:50;;;;;;;1.58;0.90;;;13.70;79.70;;;;;;4956047;29;20019;-79
2021/05/24 07:57:16;;;;;;;1.85;0.70;;;13.70;80.30;;;;;;4955112;29;20356;-76
2021/05/24 07:59:42;;;;;;;0.63;0.60;;;13.60;80.40;;;;;;4969016;28;20107;-78
2021/05/24 08:02:08;;;;;;;1.55;0.63;;;13.50;80.70;;;;;;4976301;28;20035;-78
2021/05/24 08:04:34;;;;;;;1.40;0.90;;;13.50;81.00;;;;;;4956317;28;20042;-79
2021/05/24 08:06:59;;;;;;;1.42;0.70;;;13.60;81.10;;;;;;4948435;28;20026;-80
2021/05/24 08:09:25;;;;;;;1.05;0.70;;;13.70;81.20;;;;;;4957580;28;20475;-78
2021/05/24 08:11:52;;;;;;;3.80;0.90;;;13.70;81.20;;;;;;4953142;28;20023;-78
2021/05/24 08:14:18;;;;;;;2.05;1.00;;;13.70;81.40;;;;;;4956853;28;20027;-78
2021/05/24 08:16:45;;;;;;;4.15;0.90;;;13.60;81.60;;;;;;4957135;28;20054;-77
2021/05/24 08:19:12;;;;;;;1.30;0.80;;;13.60;82.00;;;;;;4972670;28;20029;-77
2021/05/24 08:21:45;;;;;;;2.20;1.05;;;13.60;82.20;;;;;;4957210;28;20030;-79
2021/05/24 08:24:11;;;;;;;2.30;0.90;;;13.50;82.40;;;;;;4956834;28;20094;-79
2021/05/24 08:26:37;;;;;;;2.40;1.10;;;13.50;82.80;;;;;;4957357;28;20409;-79
2021/05/24 08:29:03;;;;;;;4.55;1.17;;;13.50;83.10;;;;;;4971351;28;20047;-79
2021/05/24 08:31:28;;;;;;;1.38;1.10;;;13.50;83.40;;;;;;4965817;28;20113;-81
2021/05/24 08:33:54;;;;;;;3.60;1.08;;;13.50;83.80;;;;;;4957155;28;20474;-81
2021/05/24 08:36:20;;;;;;;1.50;1.00;;;13.50;84.20;;;;;;4956738;28;20027;-81
2021/05/24 08:38:46;;;;;;;3.08;1.20;;;13.50;84.50;;;;;;4937840;29;20435;-80
2021/05/24 08:41:12;;;;;;;2.40;1.08;;;13.60;84.70;;;;;;4954611;29;20490;-80
2021/05/24 08:43:39;;;;;;;2.05;1.10;;;13.70;84.60;;;;;;4954756;29;20027;-79
2021/05/24 08:46:06;;;;;;;2.17;0.82;;;13.70;84.60;;;;;;4936976;29;20031;-81
2021/05/24 08:48:32;;;;;;;1.73;1.02;;;13.80;84.60;;;;;;4954921;28;20090;-80
2021/05/24 08:50:58;;;;;;;1.52;1.13;;;13.90;84.60;;;;;;4956926;28;20046;-81
2021/05/24 08:53:24;;;;;;;1.98;0.95;;;14.00;85.40;;;;;;4956366;28;20489;-80
2021/05/24 08:55:53;;;;;;;1.10;0.93;;;14.00;84.70;;;;;;4956941;28;20026;-80
2021/05/24 08:58:19;;;;;;;1.90;1.10;;;14.10;84.50;;;;;;4951583;28;20027;-79
2021/05/24 09:00:45;;;;;;;3.42;1.10;;;14.20;84.30;;;;;;4956226;28;20023;-80
2021/05/24 09:03:20;;;;;;;2.08;0.85;;;14.20;84.20;;;;;;4973797;28;20133;-82
2021/05/24 09:05:47;;;;;;;2.65;1.17;;;14.20;84.10;;;;;;4956610;28;20025;-81
2021/05/24 09:08:14;;;;;;;1.85;1.15;;;14.20;84.20;;;;;;4956022;28;20375;-81
2021/05/24 09:10:47;;;;;;;4.28;1.20;;;14.10;84.30;;;;;;4956646;28;20023;-83
2021/05/24 09:13:15;;;;;;;4.35;1.20;;;14.00;84.60;;;;;;4956043;28;20019;-81
2021/05/24 09:15:43;;;;;;;3.30;1.08;;;14.00;85.00;;;;;;4973617;28;20031;-81
2021/05/24 09:18:10;;;;;;;3.47;1.30;;;14.00;85.00;;;;;;4955930;28;20023;-80
2021/05/24 09:20:39;;;;;;;1.27;0.80;;;13.90;84.50;;;;;;4955941;28;20395;-80
2021/05/24 09:23:15;;;;;;;1.05;0.90;;;13.70;84.50;;;;;;4973168;28;20034;-80
2021/05/24 09:25:47;;;;;;;1.75;1.10;;;13.60;85.10;;;;;;4940564;28;20024;-80
2021/05/24 09:28:29;;;;;;;2.20;1.05;;;13.60;85.50;;;;;;4965264;28;20034;-81
2021/05/24 09:30:57;;;;;;;1.00;0.82;;;13.60;85.70;;;;;;4966339;28;20108;-81
2021/05/24 09:33:23;;;;;;;3.45;1.00;;;13.60;85.80;;;;;;4961329;28;20028;-81
2021/05/24 09:35:53;;;;;;;3.25;1.10;;;13.70;85.70;;;;;;4950510;28;20033;-81
2021/05/24 09:38:24;;;;;;;1.48;0.90;;;13.70;85.50;;;;;;4964419;28;20499;-81
2021/05/24 09:41:02;;;;;;;2.72;1.38;;;13.80;85.30;;;;;;4947398;28;20025;-81
2021/05/24 09:43:38;;;;;;;2.78;0.90;;;13.90;84.80;;;;;;4962985;28;20038;-82
2021/05/24 09:46:11;;;;;;;2.83;0.85;;;13.90;84.50;;;;;;4961221;28;20019;-81
2021/05/24 09:48:39;;;;;;;2.03;0.80;;;14.00;84.30;;;;;;4973268;28;20019;-81
2021/05/24 09:51:15;;;;;;;0.95;0.70;;;14.00;84.20;;;;;;4953732;28;20027;-80
2021/05/24 09:54:07;;;;;;;2.17;1.00;;;14.10;83.90;;;;;;4955870;28;20023;-81
2021/05/24 09:56:35;;;;;;;1.65;1.00;;;14.10;84.10;;;;;;4936140;29;20038;-81
2021/05/24 09:59:09;;;;;;;1.33;1.00;;;14.10;83.80;;;;;;4969480;28;20137;-81
2021/05/24 10:01:39;;;;;;;1.08;0.90;;;14.10;83.80;;;;;;4952325;28;20037;-81
2021/05/24 10:04:07;;;;;;;0.88;0.80;;;14.10;84.10;;;;;;4956702;28;20031;-80
2021/05/24 10:06:34;;;;;;;1.50;1.00;;;14.10;84.40;;;;;;4955958;28;20031;-80
2021/05/24 10:09:01;;;;;;;1.58;1.00;;;14.10;84.40;;;;;;4955825;28;20196;-77
2021/05/24 10:11:29;;;;;;;0.93;0.80;;;14.10;84.50;;;;;;4955192;28;20154;-77
2021/05/24 10:13:55;;;;;;;2.50;1.10;;;14.00;84.50;;;;;;4955444;28;20027;-76
2021/05/24 10:16:23;;;;;;;3.13;1.08;;;14.00;84.70;;;;;;4954887;28;20027;-77
2021/05/24 10:18:49;;;;;;;1.73;0.93;;;14.00;84.70;;;;;;4972921;28;20023;-77
2021/05/24 10:21:15;;;;;;;1.45;0.98;;;13.90;84.70;;;;;;4935571;28;20035;-77
2021/05/24 10:23:41;;;;;;;1.98;1.10;;;13.90;84.50;;;;;;4935757;29;20031;-77
2021/05/24 10:26:08;;;;;;;2.40;1.13;;;13.80;84.60;;;;;;4957236;28;20025;-77
2021/05/24 10:28:34;;;;;;;1.90;1.10;;;13.80;84.80;;;;;;4933204;28;20023;-78
2021/05/24 10:31:02;;;;;;;2.35;1.08;;;13.90;84.80;;;;;;4951377;28;20035;-78
2021/05/24 10:33:42;;;;;;;1.20;1.10;;;14.00;84.50;;;;;;4948118;28;20106;-77
2021/05/24 10:36:24;;;;;;;2.78;0.98;;;14.20;84.10;;;;;;4952736;28;20038;-78
2021/05/24 10:39:19;;;;;;;2.58;1.23;;;14.30;83.80;;;;;;4949730;29;20098;-77
2021/05/24 10:41:51;;;;;;;1.30;1.00;;;14.50;83.50;;;;;;4936542;28;20035;-78
2021/05/24 10:44:26;;;;;;;1.52;1.05;;;14.80;83.20;;;;;;4951474;28;20028;-78
2021/05/24 10:46:53;;;;;;;2.28;1.10;;;14.90;82.20;;;;;;4956070;28;20035;-78
2021/05/24 10:49:25;;;;;;;1.85;1.20;;;15.00;81.90;;;;;;4953015;28;20545;-78
2021/05/24 10:51:58;;;;;;;1.33;0.88;;;15.20;82.00;;;;;;4944066;29;20035;-78
2021/05/24 10:54:29;;;;;;;1.27;1.10;;;15.30;81.60;;;;;;4938866;28;20035;-79
2021/05/24 10:57:00;;;;;;;1.95;1.20;;;15.30;81.40;;;;;;4958762;28;20458;-78
2021/05/24 10:59:42;;;;;;;3.58;1.13;;;15.40;81.40;;;;;;4936722;29;20079;-79
2021/05/24 11:02:14;;;;;;;1.15;0.90;;;15.40;81.40;;;;;;4954018;28;20023;-77
2021/05/24 11:04:52;;;;;;;1.83;1.50;;;15.30;81.20;;;;;;4956451;29;20110;-77
2021/05/24 11:07:42;;;;;;;1.90;1.10;;;15.10;81.70;;;;;;4956419;29;20101;-77
2021/05/24 11:10:14;;;;;;;2.47;1.08;;;15.00;82.30;;;;;;4956680;29;20066;-78
2021/05/24 11:12:41;;;;;;;1.63;0.90;;;14.90;82.80;;;;;;4939584;29;20066;-77
2021/05/24 11:15:15;;;;;;;1.58;1.02;;;14.80;83.10;;;;;;4957083;29;20015;-77
2021/05/24 11:20:50;;;;;;;1.75;0.85;;;14.60;84.10;;;;;;4955837;29;20090;-78
2021/05/24 11:28:18;;;;;;;1.70;0.98;;;14.70;84.10;;;;;;4955775;29;20050;-78
2021/05/24 11:30:44;;;;;;;1.10;0.80;;;14.80;84.10;;;;;;4939073;29;20027;-77
2021/05/24 11:33:41;;;;;;;1.58;0.77;;;15.00;84.20;;;;;;4956230;29;20027;-78
2021/05/24 11:36:11;;;;;;;1.50;0.70;;;15.20;83.50;;;;;;4923490;29;20042;-77
2021/05/24 11:38:37;;;;;;;1.02;0.82;;;15.20;83.20;;;;;;4955754;29;20034;-77
2021/05/24 11:41:30;;;;;;;0.85;0.68;;;15.10;83.40;;;;;;4938688;29;20158;-76
2021/05/24 11:43:56;;;;;;;1.73;0.85;;;15.20;83.60;;;;;;4936596;29;20035;-77
2021/05/24 11:46:22;;;;;;;1.15;0.75;;;15.20;83.30;;;;;;4937837;29;20031;-78
2021/05/24 11:48:50;;;;;;;2.40;0.73;;;15.20;83.00;;;;;;4954848;29;20019;-77
2021/05/24 11:51:18;;;;;;;0.80;0.80;;;15.30;82.60;;;;;;4938462;29;20352;-78
2021/05/24 11:54:06;;;;;;;1.98;0.73;;;15.30;82.20;;;;;;4955894;29;20523;-77
2021/05/24 11:56:38;;;;;;;0.63;0.60;;;15.40;82.20;;;;;;4938006;29;20035;-76
2021/05/24 11:59:05;;;;;;;0.80;0.80;;;15.50;81.70;;;;;;4935624;29;20043;-76
2021/05/24 12:01:31;;;;;;;0.60;0.60;;;15.50;81.70;;;;;;4937805;29;20134;-78
2021/05/24 12:03:57;;;;;;;0.93;0.70;;;15.70;81.50;;;;;;4938404;29;20039;-78
2021/05/24 12:06:23;;;;;;;0.90;0.50;;;15.90;81.40;;;;;;4955122;29;20028;-77
2021/05/24 12:08:50;;;;;;;2.15;0.60;;;16.10;81.30;;;;;;4938597;29;20039;-77
2021/05/24 12:11:16;;;;;;;0.50;0.40;;;16.20;81.00;;;;;;4938455;29;20118;-77
2021/05/24 12:14:14;;;;;;;0.80;0.60;;;16.20;79.50;;;;;;4954957;29;20027;-77
2021/05/24 12:16:40;;;;;;;1.00;0.70;;;16.20;79.50;;;;;;4906347;29;20035;-77
2021/05/24 12:19:06;;;;;;;0.50;0.50;;;16.20;79.90;;;;;;4955725;29;20030;-78
2021/05/24 12:21:43;;;;;;;0.88;0.45;;;16.20;77.90;;;;;;4937582;29;20023;-77
2021/05/24 12:24:11;;;;;;;1.33;0.77;;;16.10;78.10;;;;;;4938351;29;20051;-79
2021/05/24 12:26:44;;;;;;;0.55;0.50;;;16.00;78.20;;;;;;4937419;29;20344;-78
2021/05/24 12:29:10;;;;;;;1.23;0.70;;;15.90;78.70;;;;;;4955203;29;20027;-77
2021/05/24 12:31:43;;;;;;;1.73;0.80;;;15.90;78.90;;;;;;4937449;29;20090;-78
2021/05/24 12:34:09;;;;;;;1.08;0.60;;;15.90;79.10;;;;;;4955706;29;20510;-77
2021/05/24 12:36:54;;;;;;;0.60;0.50;;;15.90;79.20;;;;;;4954561;29;20031;-76
2021/05/24 12:39:21;;;;;;;2.00;0.77;;;16.10;79.30;;;;;;4954817;29;20408;-82
2021/05/24 12:41:49;;;;;;;1.50;0.75;;;16.20;79.00;;;;;;4937780;29;20031;-77
2021/05/24 12:44:17;;;;;;;1.52;0.77;;;16.30;78.60;;;;;;4937806;29;20352;-77
2021/05/24 12:46:43;;;;;;;1.98;0.50;;;16.30;78.60;;;;;;4937300;29;20027;-78
2021/05/24 12:49:09;;;;;;;0.63;0.52;;;16.20;78.50;;;;;;4955228;29;20023;-78
2021/05/24 12:51:35;;;;;;;1.90;0.60;;;16.30;78.30;;;;;;4937152;29;20027;-76
2021/05/24 12:54:07;;;;;;;0.73;0.60;;;16.30;78.00;;;;;;4937521;29;20118;-77
2021/05/24 12:56:38;;;;;;;1.48;0.70;;;16.40;77.90;;;;;;4954324;29;20019;-78
2021/05/24 12:59:30;;;;;;;0.63;0.63;;;16.40;78.00;;;;;;4954391;29;20075;-78